sensor_id;sensor_type;location;lat;lon;timestamp;P1;durP1;ratioP1;P2;durP2;ratioP2
74559;SDS011;63032;54.340;10.138;2022-09-09T00:00:16;3.28;;;3.00;;
74559;SDS011;63032;54.340;10.138;2022-09-09T00:02:45;4.43;;;3.28;;
74559;SDS011;63032;54.340;10.138;2022-09-09T00:05:19;3.22;;;2.92;;
74559;SDS011;63032;54.340;10.138;2022-09-09T00:08:18;4.13;;;3.30;;
74559;SDS011;63032;54.340;10.138;2022-09-09T00:10:46;3.47;;;2.95;;
74559;SDS011;63032;54.340;10.138;2022-09-09T00:13:27;3.53;;;3.22;;
74559;SDS011;63032;54.340;10.138;2022-09-09T00:21:14;3.20;;;2.90;;
74559;SDS011;63032;54.340;10.138;2022-09-09T00:23:44;5.70;;;3.50;;
74559;SDS011;63032;54.340;10.138;2022-09-09T00:28:55;3.88;;;3.58;;
74559;SDS011;63032;54.340;10.138;2022-09-09T00:31:32;3.65;;;3.35;;
74559;SDS011;63032;54.340;10.138;2022-09-09T00:34:00;3.80;;;3.45;;
74559;SDS011;63032;54.340;10.138;2022-09-09T00:36:34;5.97;;;3.90;;
74559;SDS011;63032;54.340;10.138;2022-09-09T00:39:02;4.05;;;3.65;;
74559;SDS011;63032;54.340;10.138;2022-09-09T00:41:38;3.85;;;3.45;;
74559;SDS011;63032;54.340;10.138;2022-09-09T00:44:26;3.53;;;3.22;;
74559;SDS011;63032;54.340;10.138;2022-09-09T00:47:03;3.83;;;3.53;;
74559;SDS011;63032;54.340;10.138;2022-09-09T00:55:15;4.70;;;3.83;;
74559;SDS011;63032;54.340;10.138;2022-09-09T00:57:52;4.72;;;3.33;;
74559;SDS011;63032;54.340;10.138;2022-09-09T01:00:19;3.70;;;3.40;;
74559;SDS011;63032;54.340;10.138;2022-09-09T01:07:49;4.18;;;3.88;;
74559;SDS011;63032;54.340;10.138;2022-09-09T01:13:19;5.30;;;4.30;;
74559;SDS011;63032;54.340;10.138;2022-09-09T01:15:49;3.50;;;3.30;;
74559;SDS011;63032;54.340;10.138;2022-09-09T01:18:19;3.78;;;3.47;;
74559;SDS011;63032;54.340;10.138;2022-09-09T01:20:52;4.28;;;3.88;;
74559;SDS011;63032;54.340;10.138;2022-09-09T01:28:40;3.95;;;3.65;;
74559;SDS011;63032;54.340;10.138;2022-09-09T01:31:10;3.75;;;3.45;;
74559;SDS011;63032;54.340;10.138;2022-09-09T01:33:40;4.07;;;3.78;;
74559;SDS011;63032;54.340;10.138;2022-09-09T01:38:34;4.13;;;3.75;;
74559;SDS011;63032;54.340;10.138;2022-09-09T01:41:01;3.33;;;3.10;;
74559;SDS011;63032;54.340;10.138;2022-09-09T01:43:27;3.47;;;3.17;;
74559;SDS011;63032;54.340;10.138;2022-09-09T01:45:54;3.92;;;3.63;;
74559;SDS011;63032;54.340;10.138;2022-09-09T01:48:24;3.88;;;3.42;;
74559;SDS011;63032;54.340;10.138;2022-09-09T01:50:50;3.83;;;3.40;;
74559;SDS011;63032;54.340;10.138;2022-09-09T01:53:17;3.65;;;3.33;;
74559;SDS011;63032;54.340;10.138;2022-09-09T01:55:47;3.72;;;3.42;;
74559;SDS011;63032;54.340;10.138;2022-09-09T02:01:19;3.75;;;3.38;;
74559;SDS011;63032;54.340;10.138;2022-09-09T02:03:57;3.00;;;2.75;;
74559;SDS011;63032;54.340;10.138;2022-09-09T02:06:34;3.55;;;3.00;;
74559;SDS011;63032;54.340;10.138;2022-09-09T02:09:04;3.08;;;2.78;;
74559;SDS011;63032;54.340;10.138;2022-09-09T02:11:31;3.35;;;3.15;;
74559;SDS011;63032;54.340;10.138;2022-09-09T02:14:03;3.80;;;3.20;;
74559;SDS011;63032;54.340;10.138;2022-09-09T02:21:50;3.67;;;3.10;;
74559;SDS011;63032;54.340;10.138;2022-09-09T02:24:20;3.38;;;3.08;;
74559;SDS011;63032;54.340;10.138;2022-09-09T02:26:48;3.83;;;3.47;;
74559;SDS011;63032;54.340;10.138;2022-09-09T02:29:25;3.33;;;3.13;;
74559;SDS011;63032;54.340;10.138;2022-09-09T02:32:04;3.72;;;2.70;;
74559;SDS011;63032;54.340;10.138;2022-09-09T02:34:33;3.33;;;3.03;;
74559;SDS011;63032;54.340;10.138;2022-09-09T02:37:01;3.63;;;3.33;;
74559;SDS011;63032;54.340;10.138;2022-09-09T02:39:28;2.95;;;2.75;;
74559;SDS011;63032;54.340;10.138;2022-09-09T02:41:54;2.60;;;2.40;;
74559;SDS011;63032;54.340;10.138;2022-09-09T02:44:20;3.10;;;2.85;;
74559;SDS011;63032;54.340;10.138;2022-09-09T02:52:07;2.92;;;2.72;;
74559;SDS011;63032;54.340;10.138;2022-09-09T02:54:38;4.28;;;2.83;;
74559;SDS011;63032;54.340;10.138;2022-09-09T02:57:11;3.28;;;3.00;;
74559;SDS011;63032;54.340;10.138;2022-09-09T02:59:48;3.08;;;2.75;;
74559;SDS011;63032;54.340;10.138;2022-09-09T03:02:17;3.70;;;2.95;;
74559;SDS011;63032;54.340;10.138;2022-09-09T03:04:43;2.85;;;2.65;;
74559;SDS011;63032;54.340;10.138;2022-09-09T03:07:10;3.38;;;2.58;;
74559;SDS011;63032;54.340;10.138;2022-09-09T03:09:37;3.33;;;3.13;;
74559;SDS011;63032;54.340;10.138;2022-09-09T03:12:02;3.00;;;2.80;;
74559;SDS011;63032;54.340;10.138;2022-09-09T03:14:32;3.25;;;2.92;;
74559;SDS011;63032;54.340;10.138;2022-09-09T03:16:57;3.53;;;2.85;;
74559;SDS011;63032;54.340;10.138;2022-09-09T03:19:25;3.40;;;3.10;;
74559;SDS011;63032;54.340;10.138;2022-09-09T03:21:52;4.00;;;3.70;;
74559;SDS011;63032;54.340;10.138;2022-09-09T03:24:18;5.30;;;3.85;;
74559;SDS011;63032;54.340;10.138;2022-09-09T03:26:44;4.65;;;3.00;;
74559;SDS011;63032;54.340;10.138;2022-09-09T03:29:10;4.13;;;3.22;;
74559;SDS011;63032;54.340;10.138;2022-09-09T03:31:37;3.70;;;3.40;;
74559;SDS011;63032;54.340;10.138;2022-09-09T03:34:04;3.88;;;3.58;;
74559;SDS011;63032;54.340;10.138;2022-09-09T03:36:30;3.88;;;3.58;;
74559;SDS011;63032;54.340;10.138;2022-09-09T03:38:56;3.72;;;3.42;;
74559;SDS011;63032;54.340;10.138;2022-09-09T03:41:22;3.70;;;3.40;;
74559;SDS011;63032;54.340;10.138;2022-09-09T03:43:49;4.20;;;3.80;;
74559;SDS011;63032;54.340;10.138;2022-09-09T03:46:18;4.35;;;3.78;;
74559;SDS011;63032;54.340;10.138;2022-09-09T03:48:45;4.97;;;4.47;;
74559;SDS011;63032;54.340;10.138;2022-09-09T03:51:11;5.20;;;4.70;;
74559;SDS011;63032;54.340;10.138;2022-09-09T03:53:36;5.35;;;4.75;;
74559;SDS011;63032;54.340;10.138;2022-09-09T03:56:03;5.80;;;5.30;;
74559;SDS011;63032;54.340;10.138;2022-09-09T03:58:31;4.70;;;4.30;;
74559;SDS011;63032;54.340;10.138;2022-09-09T04:01:05;6.70;;;5.53;;
74559;SDS011;63032;54.340;10.138;2022-09-09T04:03:38;5.97;;;5.47;;
74559;SDS011;63032;54.340;10.138;2022-09-09T04:06:05;6.25;;;5.65;;
74559;SDS011;63032;54.340;10.138;2022-09-09T04:08:35;7.22;;;6.53;;
74559;SDS011;63032;54.340;10.138;2022-09-09T04:11:02;6.90;;;6.28;;
74559;SDS011;63032;54.340;10.138;2022-09-09T04:13:31;6.90;;;6.30;;
74559;SDS011;63032;54.340;10.138;2022-09-09T04:15:58;6.35;;;5.75;;
74559;SDS011;63032;54.340;10.138;2022-09-09T04:18:25;8.13;;;6.85;;
74559;SDS011;63032;54.340;10.138;2022-09-09T04:20:51;7.90;;;7.18;;
74559;SDS011;63032;54.340;10.138;2022-09-09T04:23:19;7.50;;;6.80;;
74559;SDS011;63032;54.340;10.138;2022-09-09T04:25:46;8.65;;;7.28;;
74559;SDS011;63032;54.340;10.138;2022-09-09T04:28:13;8.25;;;7.35;;
74559;SDS011;63032;54.340;10.138;2022-09-09T04:30:40;8.77;;;7.88;;
74559;SDS011;63032;54.340;10.138;2022-09-09T04:33:07;8.93;;;7.70;;
74559;SDS011;63032;54.340;10.138;2022-09-09T04:35:33;8.02;;;7.32;;
74559;SDS011;63032;54.340;10.138;2022-09-09T04:37:59;10.65;;;7.55;;
74559;SDS011;63032;54.340;10.138;2022-09-09T04:40:24;8.68;;;7.72;;
74559;SDS011;63032;54.340;10.138;2022-09-09T04:42:50;7.97;;;7.20;;
74559;SDS011;63032;54.340;10.138;2022-09-09T04:45:16;8.45;;;7.65;;
74559;SDS011;63032;54.340;10.138;2022-09-09T04:47:42;8.13;;;7.32;;
74559;SDS011;63032;54.340;10.138;2022-09-09T04:50:08;11.32;;;8.18;;
74559;SDS011;63032;54.340;10.138;2022-09-09T04:52:34;8.25;;;7.45;;
74559;SDS011;63032;54.340;10.138;2022-09-09T04:55:00;9.98;;;8.30;;
74559;SDS011;63032;54.340;10.138;2022-09-09T04:57:27;9.55;;;8.65;;
74559;SDS011;63032;54.340;10.138;2022-09-09T04:59:53;9.50;;;8.60;;
74559;SDS011;63032;54.340;10.138;2022-09-09T05:02:19;8.98;;;8.18;;
74559;SDS011;63032;54.340;10.138;2022-09-09T05:04:48;8.48;;;7.57;;
74559;SDS011;63032;54.340;10.138;2022-09-09T05:07:14;9.68;;;8.73;;
74559;SDS011;63032;54.340;10.138;2022-09-09T05:09:40;10.90;;;9.23;;
74559;SDS011;63032;54.340;10.138;2022-09-09T05:12:06;9.48;;;8.50;;
74559;SDS011;63032;54.340;10.138;2022-09-09T05:14:32;10.07;;;9.07;;
74559;SDS011;63032;54.340;10.138;2022-09-09T05:16:57;10.02;;;9.13;;
74559;SDS011;63032;54.340;10.138;2022-09-09T05:19:26;10.48;;;8.70;;
74559;SDS011;63032;54.340;10.138;2022-09-09T05:21:52;9.60;;;8.68;;
74559;SDS011;63032;54.340;10.138;2022-09-09T05:24:17;9.15;;;8.23;;
74559;SDS011;63032;54.340;10.138;2022-09-09T05:26:43;11.48;;;9.30;;
74559;SDS011;63032;54.340;10.138;2022-09-09T05:29:09;9.40;;;8.43;;
74559;SDS011;63032;54.340;10.138;2022-09-09T05:31:34;13.10;;;10.63;;
74559;SDS011;63032;54.340;10.138;2022-09-09T05:34:00;10.35;;;9.32;;
74559;SDS011;63032;54.340;10.138;2022-09-09T05:36:26;10.55;;;9.45;;
74559;SDS011;63032;54.340;10.138;2022-09-09T05:38:51;10.48;;;9.48;;
74559;SDS011;63032;54.340;10.138;2022-09-09T05:41:20;12.20;;;10.27;;
74559;SDS011;63032;54.340;10.138;2022-09-09T05:43:47;11.18;;;10.18;;
74559;SDS011;63032;54.340;10.138;2022-09-09T05:46:17;9.82;;;8.82;;
74559;SDS011;63032;54.340;10.138;2022-09-09T05:48:45;10.05;;;9.15;;
74559;SDS011;63032;54.340;10.138;2022-09-09T05:51:13;9.98;;;9.07;;
74559;SDS011;63032;54.340;10.138;2022-09-09T05:53:43;10.20;;;9.05;;
74559;SDS011;63032;54.340;10.138;2022-09-09T05:56:10;10.20;;;9.10;;
74559;SDS011;63032;54.340;10.138;2022-09-09T05:58:40;11.00;;;9.90;;
74559;SDS011;63032;54.340;10.138;2022-09-09T06:01:10;9.80;;;8.95;;
74559;SDS011;63032;54.340;10.138;2022-09-09T06:03:41;10.23;;;9.20;;
74559;SDS011;63032;54.340;10.138;2022-09-09T06:06:09;10.32;;;9.32;;
74559;SDS011;63032;54.340;10.138;2022-09-09T06:08:46;9.95;;;9.15;;
74559;SDS011;63032;54.340;10.138;2022-09-09T06:11:16;9.25;;;8.35;;
74559;SDS011;63032;54.340;10.138;2022-09-09T06:13:44;10.07;;;9.15;;
74559;SDS011;63032;54.340;10.138;2022-09-09T06:16:11;10.57;;;9.65;;
74559;SDS011;63032;54.340;10.138;2022-09-09T06:18:39;10.77;;;9.77;;
74559;SDS011;63032;54.340;10.138;2022-09-09T06:21:06;10.48;;;9.45;;
74559;SDS011;63032;54.340;10.138;2022-09-09T06:23:36;12.65;;;9.13;;
74559;SDS011;63032;54.340;10.138;2022-09-09T06:26:15;13.07;;;8.52;;
74559;SDS011;63032;54.340;10.138;2022-09-09T06:28:46;10.25;;;8.80;;
74559;SDS011;63032;54.340;10.138;2022-09-09T06:31:15;25.45;;;9.38;;
74559;SDS011;63032;54.340;10.138;2022-09-09T06:33:42;11.68;;;8.82;;
74559;SDS011;63032;54.340;10.138;2022-09-09T06:36:10;10.25;;;8.75;;
74559;SDS011;63032;54.340;10.138;2022-09-09T06:38:39;9.02;;;8.30;;
74559;SDS011;63032;54.340;10.138;2022-09-09T06:41:07;11.60;;;10.07;;
74559;SDS011;63032;54.340;10.138;2022-09-09T06:43:34;12.32;;;9.50;;
74559;SDS011;63032;54.340;10.138;2022-09-09T06:46:06;10.02;;;9.13;;
74559;SDS011;63032;54.340;10.138;2022-09-09T06:48:38;9.75;;;8.77;;
74559;SDS011;63032;54.340;10.138;2022-09-09T06:51:10;10.88;;;9.70;;
74559;SDS011;63032;54.340;10.138;2022-09-09T06:53:36;10.82;;;9.80;;
74559;SDS011;63032;54.340;10.138;2022-09-09T06:56:24;11.88;;;9.13;;
74559;SDS011;63032;54.340;10.138;2022-09-09T06:58:53;10.63;;;9.52;;
74559;SDS011;63032;54.340;10.138;2022-09-09T07:01:24;11.23;;;10.13;;
74559;SDS011;63032;54.340;10.138;2022-09-09T07:03:53;10.15;;;9.25;;
74559;SDS011;63032;54.340;10.138;2022-09-09T07:06:22;11.10;;;10.00;;
74559;SDS011;63032;54.340;10.138;2022-09-09T07:08:49;10.95;;;9.93;;
74559;SDS011;63032;54.340;10.138;2022-09-09T07:11:16;10.32;;;9.35;;
74559;SDS011;63032;54.340;10.138;2022-09-09T07:13:43;11.73;;;8.75;;
74559;SDS011;63032;54.340;10.138;2022-09-09T07:16:09;11.20;;;10.05;;
74559;SDS011;63032;54.340;10.138;2022-09-09T07:18:37;25.38;;;18.17;;
74559;SDS011;63032;54.340;10.138;2022-09-09T07:21:04;23.95;;;18.98;;
74559;SDS011;63032;54.340;10.138;2022-09-09T07:23:31;36.10;;;23.08;;
74559;SDS011;63032;54.340;10.138;2022-09-09T07:25:57;33.75;;;22.90;;
74559;SDS011;63032;54.340;10.138;2022-09-09T07:28:24;37.03;;;23.25;;
74559;SDS011;63032;54.340;10.138;2022-09-09T07:30:57;39.67;;;25.63;;
74559;SDS011;63032;54.340;10.138;2022-09-09T07:33:26;40.13;;;24.63;;
74559;SDS011;63032;54.340;10.138;2022-09-09T07:35:52;40.25;;;26.38;;
74559;SDS011;63032;54.340;10.138;2022-09-09T07:38:19;39.30;;;24.92;;
74559;SDS011;63032;54.340;10.138;2022-09-09T07:40:46;39.95;;;24.45;;
74559;SDS011;63032;54.340;10.138;2022-09-09T07:43:12;36.80;;;24.42;;
74559;SDS011;63032;54.340;10.138;2022-09-09T07:45:37;36.97;;;24.85;;
74559;SDS011;63032;54.340;10.138;2022-09-09T07:48:07;34.05;;;24.88;;
74559;SDS011;63032;54.340;10.138;2022-09-09T07:50:33;38.47;;;24.25;;
74559;SDS011;63032;54.340;10.138;2022-09-09T07:52:59;37.10;;;25.80;;
74559;SDS011;63032;54.340;10.138;2022-09-09T07:55:25;38.03;;;25.30;;
74559;SDS011;63032;54.340;10.138;2022-09-09T07:57:52;42.40;;;26.48;;
74559;SDS011;63032;54.340;10.138;2022-09-09T08:00:19;34.38;;;23.85;;
74559;SDS011;63032;54.340;10.138;2022-09-09T08:02:48;34.35;;;25.30;;
74559;SDS011;63032;54.340;10.138;2022-09-09T08:05:14;34.30;;;24.85;;
74559;SDS011;63032;54.340;10.138;2022-09-09T08:07:40;38.75;;;24.90;;
74559;SDS011;63032;54.340;10.138;2022-09-09T08:10:05;33.65;;;25.23;;
74559;SDS011;63032;54.340;10.138;2022-09-09T08:12:31;30.50;;;23.75;;
74559;SDS011;63032;54.340;10.138;2022-09-09T08:14:57;29.45;;;22.30;;
74559;SDS011;63032;54.340;10.138;2022-09-09T08:17:23;30.50;;;22.52;;
74559;SDS011;63032;54.340;10.138;2022-09-09T08:19:49;33.28;;;24.15;;
74559;SDS011;63032;54.340;10.138;2022-09-09T08:22:14;30.45;;;21.85;;
74559;SDS011;63032;54.340;10.138;2022-09-09T08:24:40;27.75;;;21.00;;
74559;SDS011;63032;54.340;10.138;2022-09-09T08:27:06;33.85;;;22.30;;
74559;SDS011;63032;54.340;10.138;2022-09-09T08:29:31;24.63;;;19.38;;
74559;SDS011;63032;54.340;10.138;2022-09-09T08:32:00;30.75;;;21.33;;
74559;SDS011;63032;54.340;10.138;2022-09-09T08:34:26;31.30;;;19.48;;
74559;SDS011;63032;54.340;10.138;2022-09-09T08:36:53;24.20;;;19.02;;
74559;SDS011;63032;54.340;10.138;2022-09-09T08:39:19;23.65;;;18.90;;
74559;SDS011;63032;54.340;10.138;2022-09-09T08:52:26;22.88;;;17.05;;
74559;SDS011;63032;54.340;10.138;2022-09-09T08:55:38;22.70;;;17.40;;
74559;SDS011;63032;54.340;10.138;2022-09-09T08:57:56;20.38;;;17.00;;
74559;SDS011;63032;54.340;10.138;2022-09-09T09:00:28;22.65;;;17.20;;
74559;SDS011;63032;54.340;10.138;2022-09-09T09:03:15;21.00;;;17.15;;
74559;SDS011;63032;54.340;10.138;2022-09-09T09:11:26;19.73;;;17.50;;
74559;SDS011;63032;54.340;10.138;2022-09-09T09:14:03;21.67;;;16.58;;
74559;SDS011;63032;54.340;10.138;2022-09-09T09:19:32;17.95;;;16.17;;
74559;SDS011;63032;54.340;10.138;2022-09-09T09:22:02;20.90;;;17.40;;
74559;SDS011;63032;54.340;10.138;2022-09-09T09:27:14;25.13;;;17.73;;
74559;SDS011;63032;54.340;10.138;2022-09-09T09:29:43;19.10;;;16.98;;
74559;SDS011;63032;54.340;10.138;2022-09-09T09:32:14;18.75;;;16.85;;
74559;SDS011;63032;54.340;10.138;2022-09-09T09:34:48;21.38;;;16.10;;
74559;SDS011;63032;54.340;10.138;2022-09-09T09:37:31;17.33;;;15.68;;
74559;SDS011;63032;54.340;10.138;2022-09-09T09:40:09;15.55;;;14.18;;
74559;SDS011;63032;54.340;10.138;2022-09-09T09:43:16;18.45;;;15.35;;
74559;SDS011;63032;54.340;10.138;2022-09-09T09:45:45;14.85;;;13.50;;
74559;SDS011;63032;54.340;10.138;2022-09-09T09:48:11;14.65;;;13.18;;
74559;SDS011;63032;54.340;10.138;2022-09-09T09:55:54;15.82;;;14.55;;
74559;SDS011;63032;54.340;10.138;2022-09-09T09:58:22;15.52;;;14.18;;
74559;SDS011;63032;54.340;10.138;2022-09-09T10:00:50;14.35;;;13.10;;
74559;SDS011;63032;54.340;10.138;2022-09-09T10:03:27;18.75;;;14.73;;
74559;SDS011;63032;54.340;10.138;2022-09-09T10:05:54;15.35;;;13.77;;
74559;SDS011;63032;54.340;10.138;2022-09-09T10:08:21;15.05;;;13.10;;
74559;SDS011;63032;54.340;10.138;2022-09-09T10:20:16;10.75;;;8.75;;
74559;SDS011;63032;54.340;10.138;2022-09-09T10:22:57;10.15;;;9.13;;
74559;SDS011;63032;54.340;10.138;2022-09-09T10:33:32;8.60;;;7.80;;
74559;SDS011;63032;54.340;10.138;2022-09-09T10:36:23;7.97;;;7.05;;
74559;SDS011;63032;54.340;10.138;2022-09-09T10:44:26;5.68;;;5.25;;
74559;SDS011;63032;54.340;10.138;2022-09-09T10:57:19;5.63;;;4.20;;
74559;SDS011;63032;54.340;10.138;2022-09-09T10:59:47;4.43;;;3.80;;
74559;SDS011;63032;54.340;10.138;2022-09-09T11:02:21;5.45;;;3.33;;
74559;SDS011;63032;54.340;10.138;2022-09-09T11:07:35;4.22;;;2.30;;
74559;SDS011;63032;54.340;10.138;2022-09-09T11:13:17;3.95;;;1.60;;
74559;SDS011;63032;54.340;10.138;2022-09-09T11:21:54;3.88;;;1.92;;
74559;SDS011;63032;54.340;10.138;2022-09-09T11:35:18;1.98;;;1.23;;
74559;SDS011;63032;54.340;10.138;2022-09-09T11:40:34;3.05;;;1.67;;
74559;SDS011;63032;54.340;10.138;2022-09-09T11:43:01;1.92;;;1.27;;
74559;SDS011;63032;54.340;10.138;2022-09-09T11:45:42;2.83;;;0.93;;
74559;SDS011;63032;54.340;10.138;2022-09-09T11:53:54;2.55;;;0.65;;
74559;SDS011;63032;54.340;10.138;2022-09-09T11:56:43;2.40;;;0.80;;
74559;SDS011;63032;54.340;10.138;2022-09-09T12:04:33;1.73;;;0.80;;
74559;SDS011;63032;54.340;10.138;2022-09-09T12:12:26;2.25;;;0.80;;
74559;SDS011;63032;54.340;10.138;2022-09-09T12:14:55;2.00;;;0.80;;
74559;SDS011;63032;54.340;10.138;2022-09-09T12:17:52;1.30;;;0.70;;
74559;SDS011;63032;54.340;10.138;2022-09-09T12:20:24;1.77;;;0.85;;
74559;SDS011;63032;54.340;10.138;2022-09-09T12:25:33;2.97;;;0.93;;
74559;SDS011;63032;54.340;10.138;2022-09-09T12:30:31;1.52;;;0.70;;
74559;SDS011;63032;54.340;10.138;2022-09-09T12:33:11;4.85;;;0.80;;
74559;SDS011;63032;54.340;10.138;2022-09-09T12:38:05;0.82;;;0.75;;
74559;SDS011;63032;54.340;10.138;2022-09-09T12:40:36;1.13;;;0.60;;
74559;SDS011;63032;54.340;10.138;2022-09-09T12:43:17;3.55;;;0.65;;
74559;SDS011;63032;54.340;10.138;2022-09-09T12:45:44;1.27;;;0.70;;
74559;SDS011;63032;54.340;10.138;2022-09-09T12:48:15;0.93;;;0.70;;
74559;SDS011;63032;54.340;10.138;2022-09-09T12:50:45;2.63;;;0.65;;
74559;SDS011;63032;54.340;10.138;2022-09-09T12:53:24;2.00;;;0.47;;
74559;SDS011;63032;54.340;10.138;2022-09-09T12:56:17;1.50;;;0.65;;
74559;SDS011;63032;54.340;10.138;2022-09-09T12:58:46;2.40;;;0.60;;
74559;SDS011;63032;54.340;10.138;2022-09-09T13:01:22;1.35;;;0.70;;
74559;SDS011;63032;54.340;10.138;2022-09-09T13:03:50;0.80;;;0.60;;
74559;SDS011;63032;54.340;10.138;2022-09-09T13:06:34;2.00;;;0.60;;
74559;SDS011;63032;54.340;10.138;2022-09-09T13:09:00;2.83;;;0.80;;
74559;SDS011;63032;54.340;10.138;2022-09-09T13:14:16;3.77;;;0.50;;
74559;SDS011;63032;54.340;10.138;2022-09-09T13:16:58;7.30;;;0.90;;
74559;SDS011;63032;54.340;10.138;2022-09-09T13:19:25;2.88;;;0.63;;
74559;SDS011;63032;54.340;10.138;2022-09-09T13:21:56;1.30;;;0.60;;
74559;SDS011;63032;54.340;10.138;2022-09-09T13:24:30;2.42;;;0.77;;
74559;SDS011;63032;54.340;10.138;2022-09-09T13:29:23;3.22;;;0.70;;
74559;SDS011;63032;54.340;10.138;2022-09-09T13:31:50;2.78;;;0.70;;
74559;SDS011;63032;54.340;10.138;2022-09-09T13:36:59;1.13;;;0.55;;
74559;SDS011;63032;54.340;10.138;2022-09-09T13:39:30;2.30;;;1.00;;
74559;SDS011;63032;54.340;10.138;2022-09-09T13:41:59;2.95;;;0.77;;
74559;SDS011;63032;54.340;10.138;2022-09-09T13:44:27;2.35;;;0.80;;
74559;SDS011;63032;54.340;10.138;2022-09-09T13:47:06;1.27;;;0.52;;
74559;SDS011;63032;54.340;10.138;2022-09-09T13:49:45;2.65;;;0.75;;
74559;SDS011;63032;54.340;10.138;2022-09-09T13:52:15;1.67;;;0.65;;
74559;SDS011;63032;54.340;10.138;2022-09-09T13:54:47;1.63;;;0.65;;
74559;SDS011;63032;54.340;10.138;2022-09-09T13:57:23;8.25;;;0.82;;
74559;SDS011;63032;54.340;10.138;2022-09-09T13:59:50;4.65;;;0.93;;
74559;SDS011;63032;54.340;10.138;2022-09-09T14:02:18;0.90;;;0.57;;
74559;SDS011;63032;54.340;10.138;2022-09-09T14:04:48;1.65;;;0.60;;
74559;SDS011;63032;54.340;10.138;2022-09-09T14:07:16;2.17;;;0.70;;
74559;SDS011;63032;54.340;10.138;2022-09-09T14:09:43;2.22;;;0.90;;
74559;SDS011;63032;54.340;10.138;2022-09-09T14:12:12;2.20;;;0.90;;
74559;SDS011;63032;54.340;10.138;2022-09-09T14:14:38;1.92;;;0.75;;
74559;SDS011;63032;54.340;10.138;2022-09-09T14:17:04;2.25;;;0.90;;
74559;SDS011;63032;54.340;10.138;2022-09-09T14:19:30;1.65;;;0.57;;
74559;SDS011;63032;54.340;10.138;2022-09-09T14:21:56;1.30;;;0.63;;
74559;SDS011;63032;54.340;10.138;2022-09-09T14:24:23;5.78;;;0.90;;
74559;SDS011;63032;54.340;10.138;2022-09-09T14:26:48;2.60;;;0.98;;
74559;SDS011;63032;54.340;10.138;2022-09-09T14:29:14;2.00;;;0.77;;
74559;SDS011;63032;54.340;10.138;2022-09-09T14:31:40;2.25;;;0.73;;
74559;SDS011;63032;54.340;10.138;2022-09-09T14:34:05;2.05;;;0.80;;
74559;SDS011;63032;54.340;10.138;2022-09-09T14:36:31;5.75;;;1.02;;
74559;SDS011;63032;54.340;10.138;2022-09-09T14:38:58;2.25;;;0.80;;
74559;SDS011;63032;54.340;10.138;2022-09-09T14:41:24;1.17;;;0.60;;
74559;SDS011;63032;54.340;10.138;2022-09-09T14:43:50;1.85;;;0.60;;
74559;SDS011;63032;54.340;10.138;2022-09-09T14:46:16;1.42;;;0.63;;
74559;SDS011;63032;54.340;10.138;2022-09-09T14:48:44;2.78;;;0.50;;
74559;SDS011;63032;54.340;10.138;2022-09-09T14:51:14;2.13;;;0.90;;
74559;SDS011;63032;54.340;10.138;2022-09-09T14:53:43;0.98;;;0.65;;
74559;SDS011;63032;54.340;10.138;2022-09-09T14:56:10;2.08;;;0.70;;
74559;SDS011;63032;54.340;10.138;2022-09-09T14:58:40;1.50;;;0.68;;
74559;SDS011;63032;54.340;10.138;2022-09-09T15:01:07;1.20;;;0.50;;
74559;SDS011;63032;54.340;10.138;2022-09-09T15:03:37;1.75;;;0.60;;
74559;SDS011;63032;54.340;10.138;2022-09-09T15:06:04;1.55;;;0.63;;
74559;SDS011;63032;54.340;10.138;2022-09-09T15:08:38;4.85;;;0.88;;
74559;SDS011;63032;54.340;10.138;2022-09-09T15:11:09;2.53;;;0.70;;
74559;SDS011;63032;54.340;10.138;2022-09-09T15:13:35;2.03;;;0.90;;
74559;SDS011;63032;54.340;10.138;2022-09-09T15:16:14;1.88;;;0.60;;
74559;SDS011;63032;54.340;10.138;2022-09-09T15:18:42;1.38;;;0.70;;
74559;SDS011;63032;54.340;10.138;2022-09-09T15:21:13;2.38;;;0.60;;
74559;SDS011;63032;54.340;10.138;2022-09-09T15:23:41;6.75;;;1.00;;
74559;SDS011;63032;54.340;10.138;2022-09-09T15:26:07;4.15;;;0.80;;
74559;SDS011;63032;54.340;10.138;2022-09-09T15:28:34;1.40;;;0.75;;
74559;SDS011;63032;54.340;10.138;2022-09-09T15:31:05;3.47;;;0.90;;
74559;SDS011;63032;54.340;10.138;2022-09-09T15:33:34;2.20;;;1.08;;
74559;SDS011;63032;54.340;10.138;2022-09-09T15:36:12;3.40;;;0.90;;
74559;SDS011;63032;54.340;10.138;2022-09-09T15:38:48;8.27;;;1.30;;
74559;SDS011;63032;54.340;10.138;2022-09-09T15:41:15;2.47;;;1.00;;
74559;SDS011;63032;54.340;10.138;2022-09-09T15:43:45;2.92;;;0.80;;
74559;SDS011;63032;54.340;10.138;2022-09-09T15:46:31;2.38;;;0.93;;
74559;SDS011;63032;54.340;10.138;2022-09-09T15:49:02;1.55;;;0.82;;
74559;SDS011;63032;54.340;10.138;2022-09-09T15:51:29;3.55;;;1.25;;
74559;SDS011;63032;54.340;10.138;2022-09-09T15:53:55;3.78;;;1.13;;
74559;SDS011;63032;54.340;10.138;2022-09-09T15:56:33;2.83;;;0.82;;
74559;SDS011;63032;54.340;10.138;2022-09-09T15:58:59;6.63;;;1.02;;
74559;SDS011;63032;54.340;10.138;2022-09-09T16:01:27;2.90;;;0.77;;
74559;SDS011;63032;54.340;10.138;2022-09-09T16:03:57;2.05;;;1.05;;
74559;SDS011;63032;54.340;10.138;2022-09-09T16:06:24;2.30;;;0.95;;
74559;SDS011;63032;54.340;10.138;2022-09-09T16:08:51;2.25;;;1.00;;
74559;SDS011;63032;54.340;10.138;2022-09-09T16:11:19;3.03;;;0.82;;
74559;SDS011;63032;54.340;10.138;2022-09-09T16:13:47;2.78;;;1.27;;
74559;SDS011;63032;54.340;10.138;2022-09-09T16:16:14;2.22;;;1.33;;
74559;SDS011;63032;54.340;10.138;2022-09-09T16:18:42;3.72;;;1.13;;
74559;SDS011;63032;54.340;10.138;2022-09-09T16:21:15;2.08;;;0.90;;
74559;SDS011;63032;54.340;10.138;2022-09-09T16:23:45;1.80;;;0.80;;
74559;SDS011;63032;54.340;10.138;2022-09-09T16:26:11;3.70;;;0.98;;
74559;SDS011;63032;54.340;10.138;2022-09-09T16:28:38;2.40;;;1.15;;
74559;SDS011;63032;54.340;10.138;2022-09-09T16:31:08;2.17;;;0.90;;
74559;SDS011;63032;54.340;10.138;2022-09-09T16:33:36;1.23;;;0.90;;
74559;SDS011;63032;54.340;10.138;2022-09-09T16:36:06;2.55;;;0.88;;
74559;SDS011;63032;54.340;10.138;2022-09-09T16:38:33;2.70;;;0.90;;
74559;SDS011;63032;54.340;10.138;2022-09-09T16:41:01;1.77;;;0.68;;
74559;SDS011;63032;54.340;10.138;2022-09-09T16:43:30;1.88;;;0.80;;
74559;SDS011;63032;54.340;10.138;2022-09-09T16:45:55;2.70;;;0.90;;
74559;SDS011;63032;54.340;10.138;2022-09-09T16:48:23;3.35;;;1.00;;
74559;SDS011;63032;54.340;10.138;2022-09-09T16:50:49;1.77;;;0.80;;
74559;SDS011;63032;54.340;10.138;2022-09-09T16:53:15;1.08;;;0.88;;
74559;SDS011;63032;54.340;10.138;2022-09-09T16:55:40;0.98;;;0.77;;
74559;SDS011;63032;54.340;10.138;2022-09-09T16:58:10;1.23;;;0.95;;
74559;SDS011;63032;54.340;10.138;2022-09-09T17:00:36;2.17;;;0.80;;
74559;SDS011;63032;54.340;10.138;2022-09-09T17:03:02;2.47;;;1.40;;
74559;SDS011;63032;54.340;10.138;2022-09-09T17:05:28;3.95;;;0.98;;
74559;SDS011;63032;54.340;10.138;2022-09-09T17:07:54;1.67;;;1.00;;
74559;SDS011;63032;54.340;10.138;2022-09-09T17:10:22;1.67;;;1.15;;
74559;SDS011;63032;54.340;10.138;2022-09-09T17:12:49;1.35;;;1.00;;
74559;SDS011;63032;54.340;10.138;2022-09-09T17:15:15;3.10;;;1.10;;
74559;SDS011;63032;54.340;10.138;2022-09-09T17:17:43;4.80;;;1.27;;
74559;SDS011;63032;54.340;10.138;2022-09-09T17:20:10;2.08;;;1.13;;
74559;SDS011;63032;54.340;10.138;2022-09-09T17:22:36;1.90;;;1.05;;